createdAt,value
2022-10-13T00:02:26.476Z,15.10
2022-10-13T00:05:30.871Z,16.60
2022-10-13T00:08:34.945Z,17.10
2022-10-13T00:11:38.264Z,16.23
2022-10-13T00:14:41.678Z,12.97
2022-10-13T00:17:45.111Z,11.55
2022-10-13T00:20:50.042Z,11.95
2022-10-13T00:23:58.545Z,12.23
2022-10-13T00:27:01.811Z,13.57
2022-10-13T00:30:05.741Z,14.50
2022-10-13T00:33:10.201Z,10.70
2022-10-13T00:36:13.521Z,10.57
2022-10-13T00:39:16.811Z,11.82
2022-10-13T00:42:20.551Z,13.93
2022-10-13T00:45:29.667Z,10.67
2022-10-13T00:48:32.965Z,13.55
2022-10-13T00:51:40.717Z,14.30
2022-10-13T00:54:44.908Z,11.40
2022-10-13T00:57:54.811Z,11.20
2022-10-13T01:01:06.869Z,10.67
2022-10-13T01:04:11.037Z,11.50
2022-10-13T01:07:16.790Z,16.05
2022-10-13T01:10:28.003Z,13.77
2022-10-13T01:13:43.417Z,16.13
2022-10-13T01:17:07.638Z,13.80
2022-10-13T01:20:48.077Z,11.02
2022-10-13T01:24:23.221Z,11.13
2022-10-13T01:27:42.318Z,11.48
2022-10-13T01:30:56.917Z,15.03
2022-10-13T01:34:02.813Z,12.07
2022-10-13T01:37:16.236Z,15.82
2022-10-13T01:40:27.540Z,14.70
2022-10-13T01:43:42.996Z,14.20
2022-10-13T01:46:48.650Z,16.00
2022-10-13T01:49:54.185Z,13.83
2022-10-13T01:52:59.726Z,12.60
2022-10-13T01:56:03.115Z,11.57
2022-10-13T01:59:10.456Z,13.13
2022-10-13T02:02:24.509Z,15.97
2022-10-13T02:06:05.056Z,12.97
2022-10-13T02:09:26.946Z,13.98
2022-10-13T02:13:00.718Z,12.90
2022-10-13T02:16:04.199Z,12.43
2022-10-13T02:19:12.890Z,12.87
2022-10-13T02:22:17.845Z,15.43
2022-10-13T02:25:21.384Z,18.50
2022-10-13T02:28:27.132Z,14.10
2022-10-13T02:31:30.427Z,11.77
2022-10-13T02:34:33.805Z,11.53
2022-10-13T02:37:37.082Z,11.70
2022-10-13T02:40:40.371Z,10.45
2022-10-13T02:43:43.655Z,13.40
2022-10-13T02:46:47.715Z,15.98
2022-10-13T02:49:50.946Z,15.60
2022-10-13T02:52:54.280Z,13.43
2022-10-13T02:55:57.486Z,13.50
2022-10-13T02:59:02.315Z,14.32
2022-10-13T03:02:05.650Z,15.50
2022-10-13T03:05:10.279Z,12.50
2022-10-13T03:08:13.738Z,14.60
2022-10-13T03:11:19.720Z,13.95
2022-10-13T03:14:22.979Z,13.35
2022-10-13T03:17:27.092Z,12.82
2022-10-13T03:20:30.935Z,11.53
2022-10-13T03:23:34.694Z,11.60
2022-10-13T03:26:37.978Z,14.18
2022-10-13T03:29:41.359Z,12.50
2022-10-13T03:32:44.647Z,12.68
2022-10-13T03:35:47.985Z,15.80
2022-10-13T03:38:51.262Z,15.97
2022-10-13T03:41:54.577Z,12.98
2022-10-13T03:44:57.856Z,14.32
2022-10-13T03:48:01.203Z,13.35
2022-10-13T03:51:09.274Z,12.90
2022-10-13T03:54:13.886Z,11.00
2022-10-13T03:57:17.170Z,12.38
2022-10-13T04:00:20.490Z,12.65
2022-10-13T04:03:24.530Z,16.02
2022-10-13T04:06:28.511Z,11.93
2022-10-13T04:09:31.794Z,13.10
2022-10-13T04:12:34.977Z,13.57
2022-10-13T04:15:40.013Z,13.32
2022-10-13T04:18:44.836Z,12.82
2022-10-13T04:21:49.138Z,13.17
2022-10-13T04:24:52.489Z,15.70
2022-10-13T04:27:55.702Z,13.95
2022-10-13T04:31:00.065Z,13.45
2022-10-13T04:34:04.991Z,18.27
2022-10-13T04:37:08.267Z,14.27
2022-10-13T04:40:11.789Z,10.83
2022-10-13T04:43:15.934Z,15.00
2022-10-13T04:46:24.789Z,12.10
2022-10-13T04:49:28.168Z,15.07
2022-10-13T04:52:31.549Z,13.70
2022-10-13T04:55:37.213Z,17.43
2022-10-13T04:58:41.763Z,13.52
2022-10-13T05:01:45.022Z,12.05
2022-10-13T05:04:49.777Z,13.32
2022-10-13T05:07:53.000Z,11.57
2022-10-13T05:11:01.361Z,12.67
2022-10-13T05:14:05.019Z,11.63
2022-10-13T05:17:10.180Z,11.68
2022-10-13T05:20:13.917Z,12.45
2022-10-13T05:23:17.329Z,12.20
2022-10-13T05:26:20.822Z,13.90
2022-10-13T05:29:24.066Z,18.77
2022-10-13T05:32:27.420Z,13.85
2022-10-13T05:35:30.976Z,16.60
2022-10-13T05:38:34.298Z,14.90
2022-10-13T05:41:39.250Z,17.23
2022-10-13T05:44:49.759Z,13.50
2022-10-13T05:47:53.611Z,13.30
2022-10-13T05:51:00.265Z,15.38
2022-10-13T05:54:16.212Z,13.70
2022-10-13T05:57:31.288Z,14.30
2022-10-13T06:00:34.693Z,12.07
2022-10-13T06:03:40.157Z,15.35
2022-10-13T06:06:43.663Z,29.33
2022-10-13T06:14:55.347Z,15.57
2022-10-13T06:17:58.737Z,13.20
2022-10-13T06:25:23.206Z,12.90
2022-10-13T06:28:28.432Z,14.00
2022-10-13T06:31:32.039Z,12.87
2022-10-13T06:34:37.455Z,12.95
2022-10-13T06:37:40.980Z,13.43
2022-10-13T06:40:46.967Z,12.93
2022-10-13T06:43:50.770Z,12.33
2022-10-13T06:46:54.855Z,12.90
2022-10-13T06:49:58.924Z,13.63
2022-10-13T06:53:02.565Z,13.93
2022-10-13T06:56:07.336Z,13.07
2022-10-13T06:59:12.064Z,11.40
2022-10-13T07:02:16.049Z,14.17
2022-10-13T07:05:19.642Z,12.80
2022-10-13T07:08:23.221Z,12.88
2022-10-13T07:11:29.097Z,12.55
2022-10-13T07:14:33.164Z,15.50
2022-10-13T07:17:37.234Z,14.93
2022-10-13T07:20:41.206Z,12.98
2022-10-13T07:23:45.286Z,14.55
2022-10-13T07:26:49.023Z,12.40
2022-10-13T07:29:55.358Z,16.03
2022-10-13T07:33:00.684Z,14.57
2022-10-13T07:36:05.269Z,16.40
2022-10-13T07:39:10.787Z,14.65
2022-10-13T07:42:15.115Z,13.38
2022-10-13T07:45:18.596Z,13.47
2022-10-13T07:51:34.214Z,13.27
2022-10-13T07:54:37.763Z,10.68
2022-10-13T07:57:41.551Z,14.77
2022-10-13T08:00:45.751Z,12.80
2022-10-13T08:03:50.898Z,12.17
2022-10-13T08:06:57.658Z,11.25
2022-10-13T08:10:01.372Z,13.43
2022-10-13T08:13:05.002Z,13.27
2022-10-13T08:16:08.609Z,13.77
2022-10-13T08:19:20.396Z,13.70
2022-10-13T08:22:28.078Z,15.88
2022-10-13T08:25:39.156Z,14.48
2022-10-13T08:28:57.536Z,13.88
2022-10-13T08:32:07.687Z,11.03
2022-10-13T08:35:11.914Z,10.43
2022-10-13T08:38:16.553Z,11.75
2022-10-13T08:41:53.545Z,11.73
2022-10-13T08:48:33.190Z,10.70
2022-10-13T08:51:39.755Z,13.83
2022-10-13T08:54:44.329Z,12.05
2022-10-13T08:57:48.226Z,11.38
2022-10-13T09:01:10.731Z,13.25
2022-10-13T09:04:36.555Z,11.70
2022-10-13T09:07:41.293Z,12.97
2022-10-13T09:10:53.291Z,11.30
2022-10-13T09:14:02.019Z,10.73
2022-10-13T09:17:26.579Z,12.32
2022-10-13T09:31:24.150Z,12.73
2022-10-13T09:34:28.851Z,10.45
2022-10-13T09:37:35.560Z,9.48
2022-10-13T09:40:41.185Z,12.63
2022-10-13T09:44:00.142Z,11.77
2022-10-13T09:47:05.029Z,10.48
2022-10-13T09:50:18.945Z,11.60
2022-10-13T09:53:47.108Z,12.48
2022-10-13T09:57:11.422Z,13.60
2022-10-13T10:00:24.984Z,11.93
2022-10-13T10:03:35.815Z,11.95
2022-10-13T10:06:40.341Z,12.15
2022-10-13T10:09:51.556Z,10.80
2022-10-13T10:12:54.998Z,8.53
2022-10-13T10:16:07.249Z,10.23
2022-10-13T10:19:26.435Z,10.95
2022-10-13T10:22:52.945Z,10.55
2022-10-13T10:26:10.669Z,9.93
2022-10-13T10:29:28.637Z,11.90
2022-10-13T10:32:51.060Z,10.97
2022-10-13T10:36:09.068Z,10.77
2022-10-13T10:39:27.616Z,10.13
2022-10-13T10:42:51.168Z,9.90
2022-10-13T10:45:59.254Z,12.40
2022-10-13T10:49:16.547Z,14.50
2022-10-13T10:52:27.859Z,8.85
2022-10-13T10:55:52.915Z,10.02
2022-10-13T10:59:01.725Z,10.85
2022-10-13T11:02:07.848Z,11.60
2022-10-13T11:05:11.783Z,10.73
2022-10-13T11:08:49.151Z,13.00
2022-10-13T11:11:54.763Z,10.43
2022-10-13T11:15:11.608Z,13.52
2022-10-13T11:18:52.241Z,10.70
2022-10-13T11:21:59.939Z,10.20
2022-10-13T11:25:36.927Z,10.60
2022-10-13T11:28:43.645Z,12.85
2022-10-13T11:31:54.420Z,13.40
2022-10-13T11:35:06.877Z,10.27
2022-10-13T11:38:29.783Z,11.40
2022-10-13T11:41:47.436Z,14.63
2022-10-13T11:44:59.482Z,10.63
2022-10-13T11:48:33.768Z,14.77
2022-10-13T11:51:50.662Z,11.40
2022-10-13T11:55:06.070Z,10.43
2022-10-13T11:58:17.510Z,12.80
2022-10-13T12:01:23.935Z,11.93
2022-10-13T12:04:30.247Z,11.38
2022-10-13T12:07:36.892Z,12.57
2022-10-13T12:10:40.546Z,12.17
2022-10-13T12:13:47.668Z,11.45
2022-10-13T12:20:23.553Z,11.77
2022-10-13T12:23:28.199Z,12.80
2022-10-13T12:26:31.786Z,11.63
2022-10-13T12:29:37.427Z,14.57
2022-10-13T12:32:50.611Z,16.83
2022-10-13T12:35:54.376Z,9.77
2022-10-13T12:39:08.170Z,10.97
2022-10-13T12:42:14.636Z,14.40
2022-10-13T12:45:20.861Z,11.80
2022-10-13T12:48:33.187Z,12.88
2022-10-13T12:51:38.390Z,14.30
2022-10-13T12:54:49.417Z,11.10
2022-10-13T12:57:57.302Z,9.53
2022-10-13T13:01:08.523Z,13.55
2022-10-13T13:04:24.014Z,12.77
2022-10-13T13:07:34.976Z,10.20
2022-10-13T13:10:53.640Z,14.90
2022-10-13T13:14:45.162Z,11.17
2022-10-13T13:18:04.059Z,11.68
2022-10-13T13:21:18.480Z,9.02
2022-10-13T13:24:39.097Z,11.13
2022-10-13T13:27:46.259Z,14.07
2022-10-13T13:30:53.122Z,10.47
2022-10-13T13:33:57.011Z,11.18
2022-10-13T13:37:02.676Z,12.25
2022-10-13T13:40:07.607Z,13.48
2022-10-13T13:43:11.053Z,15.13
2022-10-13T13:46:23.445Z,11.80
2022-10-13T13:49:26.830Z,9.75
2022-10-13T13:52:30.157Z,13.07
2022-10-13T13:55:34.128Z,12.25
2022-10-13T13:58:37.454Z,13.17
2022-10-13T14:01:40.885Z,12.50
2022-10-13T14:04:44.515Z,13.40
2022-10-13T14:07:47.881Z,17.27
2022-10-13T14:10:51.373Z,12.20
2022-10-13T14:13:54.766Z,14.60
2022-10-13T14:17:05.329Z,12.10
2022-10-13T14:20:09.223Z,9.95
2022-10-13T14:23:14.248Z,12.43
2022-10-13T14:26:17.609Z,14.00
2022-10-13T14:29:21.116Z,13.87
2022-10-13T14:32:24.439Z,10.97
2022-10-13T14:35:27.807Z,12.00
2022-10-13T14:38:31.289Z,12.10
2022-10-13T14:41:34.725Z,12.20
2022-10-13T14:44:38.091Z,13.53
2022-10-13T14:47:41.987Z,12.43
2022-10-13T14:50:45.525Z,10.80
2022-10-13T14:53:48.882Z,11.68
2022-10-13T14:56:52.432Z,12.70
2022-10-13T15:00:00.753Z,12.90
2022-10-13T15:03:05.698Z,11.20
2022-10-13T15:06:23.726Z,11.10
2022-10-13T15:09:38.954Z,12.90
2022-10-13T15:12:52.931Z,12.73
2022-10-13T15:15:57.160Z,13.07
2022-10-13T15:19:00.691Z,14.87
2022-10-13T15:22:04.086Z,12.98
2022-10-13T15:25:10.201Z,18.88
2022-10-13T15:28:13.742Z,14.88
2022-10-13T15:31:19.012Z,16.60
2022-10-13T15:34:22.346Z,16.03
2022-10-13T15:37:25.814Z,26.55
2022-10-13T15:40:29.233Z,22.50
2022-10-13T15:43:33.166Z,28.83
2022-10-13T15:46:37.851Z,24.03
2022-10-13T15:49:45.438Z,24.40
2022-10-13T15:52:48.920Z,21.63
2022-10-13T15:55:52.504Z,27.80
2022-10-13T15:58:55.859Z,36.55
2022-10-13T16:02:00.584Z,78.37
2022-10-13T16:05:05.487Z,129.53
2022-10-13T16:08:10.706Z,167.38
2022-10-13T16:11:16.076Z,240.48
2022-10-13T16:14:19.613Z,198.43
2022-10-13T16:17:25.682Z,157.47
2022-10-13T16:20:34.387Z,198.37
2022-10-13T16:23:37.805Z,75.55
2022-10-13T16:26:41.119Z,36.13
2022-10-13T16:29:44.399Z,166.48
2022-10-13T16:32:47.773Z,192.57
2022-10-13T16:35:51.090Z,200.87
2022-10-13T16:38:55.307Z,210.20
2022-10-13T16:41:58.774Z,107.32
2022-10-13T16:45:02.135Z,127.93
2022-10-13T16:48:05.589Z,126.03
2022-10-13T16:51:12.221Z,119.53
2022-10-13T16:54:15.514Z,86.53
2022-10-13T16:57:19.179Z,90.78
2022-10-13T17:00:24.552Z,74.82
2022-10-13T17:03:27.988Z,69.00
2022-10-13T17:06:31.648Z,55.00
2022-10-13T17:09:35.570Z,61.60
2022-10-13T17:12:38.906Z,57.25
2022-10-13T17:15:52.982Z,66.28
2022-10-13T17:18:57.569Z,53.97
2022-10-13T17:22:09.233Z,59.40
2022-10-13T17:25:13.569Z,51.63
2022-10-13T17:28:17.885Z,48.42
2022-10-13T17:31:24.087Z,51.85
2022-10-13T17:34:27.579Z,50.33
2022-10-13T17:37:31.017Z,54.70
2022-10-13T17:40:35.931Z,76.78
2022-10-13T17:43:40.983Z,64.22
2022-10-13T17:46:44.317Z,65.00
2022-10-13T17:49:48.749Z,59.50
2022-10-13T17:52:52.472Z,56.23
2022-10-13T17:56:04.198Z,53.72
2022-10-13T17:59:09.802Z,53.10
2022-10-13T18:02:13.638Z,56.78
2022-10-13T18:05:17.224Z,56.47
2022-10-13T18:08:21.303Z,49.90
2022-10-13T18:11:25.344Z,55.25
2022-10-13T18:14:28.801Z,52.25
2022-10-13T18:17:32.187Z,55.60
2022-10-13T18:20:39.079Z,44.00
2022-10-13T18:23:43.242Z,39.80
2022-10-13T18:26:47.146Z,45.03
2022-10-13T18:29:50.598Z,35.58
2022-10-13T18:32:53.867Z,42.33
2022-10-13T18:35:57.345Z,40.00
2022-10-13T18:39:10.700Z,38.47
2022-10-13T18:42:15.457Z,37.78
2022-10-13T18:45:18.850Z,49.42
2022-10-13T18:48:22.255Z,59.42
2022-10-13T18:51:26.368Z,60.50
2022-10-13T18:54:30.739Z,56.57
2022-10-13T18:57:37.282Z,73.32
2022-10-13T19:00:41.634Z,68.95
2022-10-13T19:03:45.684Z,65.78
2022-10-13T19:06:49.303Z,63.90
2022-10-13T19:09:53.322Z,55.60
2022-10-13T19:12:56.891Z,58.35
2022-10-13T19:16:03.827Z,57.85
2022-10-13T19:19:10.274Z,56.33
2022-10-13T19:22:13.618Z,55.30
2022-10-13T19:25:17.171Z,52.87
2022-10-13T19:28:21.383Z,51.58
2022-10-13T19:31:26.796Z,47.03
2022-10-13T19:34:32.669Z,49.47
2022-10-13T19:37:36.946Z,46.37
2022-10-13T19:40:52.635Z,38.20
2022-10-13T19:43:55.901Z,49.00
2022-10-13T19:47:00.822Z,45.22
2022-10-13T19:50:06.126Z,52.90
2022-10-13T19:53:11.285Z,54.93
2022-10-13T19:56:24.435Z,51.07
2022-10-13T19:59:28.318Z,44.30
2022-10-13T20:02:31.914Z,47.83
2022-10-13T20:05:38.510Z,43.67
2022-10-13T20:08:41.971Z,48.17
2022-10-13T20:11:46.807Z,45.13
2022-10-13T20:14:50.366Z,43.53
2022-10-13T20:17:53.703Z,40.60
2022-10-13T20:20:56.978Z,40.35
2022-10-13T20:24:00.451Z,35.53
2022-10-13T20:27:03.815Z,53.40
2022-10-13T20:30:08.718Z,45.50
2022-10-13T20:33:12.226Z,40.50
2022-10-13T20:36:18.131Z,31.13
2022-10-13T20:39:21.535Z,36.20
2022-10-13T20:42:24.889Z,32.23
2022-10-13T20:45:28.209Z,39.88
2022-10-13T20:48:57.829Z,39.53
2022-10-13T20:51:57.205Z,33.33
2022-10-13T20:55:00.513Z,38.07
2022-10-13T20:58:04.645Z,39.67
2022-10-13T21:01:08.102Z,42.30
2022-10-13T21:04:13.019Z,44.00
2022-10-13T21:07:16.409Z,44.03
2022-10-13T21:10:19.734Z,40.37
2022-10-13T21:13:23.139Z,34.03
2022-10-13T21:16:28.458Z,33.88
2022-10-13T21:19:31.860Z,41.15
2022-10-13T21:22:35.117Z,36.17
2022-10-13T21:25:42.005Z,35.27
2022-10-13T21:28:45.480Z,32.47
2022-10-13T21:31:48.866Z,39.65
2022-10-13T21:34:54.073Z,40.22
2022-10-13T21:37:58.019Z,42.10
2022-10-13T21:41:04.540Z,35.50
2022-10-13T21:44:07.924Z,37.27
2022-10-13T21:47:11.274Z,32.08
2022-10-13T21:50:14.579Z,31.60
2022-10-13T21:53:21.278Z,32.25
2022-10-13T21:56:26.182Z,34.20
2022-10-13T21:59:29.806Z,33.47
2022-10-13T22:02:33.100Z,38.03
2022-10-13T22:05:36.354Z,38.00
2022-10-13T22:08:41.532Z,34.88
2022-10-13T22:11:54.214Z,32.50
2022-10-13T22:14:59.728Z,34.80
2022-10-13T22:18:03.446Z,41.08
2022-10-13T22:21:12.045Z,35.35
2022-10-13T22:24:18.323Z,30.77
2022-10-13T22:27:21.955Z,33.80
2022-10-13T22:30:25.627Z,28.77
2022-10-13T22:33:28.951Z,39.20
2022-10-13T22:36:32.333Z,37.15
2022-10-13T22:39:35.677Z,47.00
2022-10-13T22:42:44.662Z,51.53
2022-10-13T22:45:52.137Z,48.07
2022-10-13T22:48:56.820Z,44.22
2022-10-13T22:52:00.143Z,53.38
2022-10-13T22:55:03.524Z,51.30
2022-10-13T22:58:08.613Z,55.30
2022-10-13T23:01:14.974Z,50.30
2022-10-13T23:04:18.355Z,42.45
2022-10-13T23:07:22.468Z,41.00
2022-10-13T23:10:27.081Z,53.30
2022-10-13T23:13:30.434Z,44.10
2022-10-13T23:16:35.119Z,72.20
2022-10-13T23:19:38.501Z,74.85
2022-10-13T23:22:42.088Z,51.40
2022-10-13T23:25:45.504Z,50.88
2022-10-13T23:28:48.946Z,40.93
2022-10-13T23:31:52.387Z,39.53
2022-10-13T23:34:55.724Z,44.40
2022-10-13T23:38:01.025Z,49.47
2022-10-13T23:41:10.971Z,64.65
2022-10-13T23:44:14.988Z,59.87
2022-10-13T23:47:18.939Z,56.60
2022-10-13T23:50:23.066Z,52.80
2022-10-13T23:53:26.365Z,53.85
2022-10-13T23:56:29.831Z,50.03
2022-10-13T23:59:33.534Z,50.10
